createdAt,value
2023-08-24T00:02:19.268Z,2.90
2023-08-24T00:12:22.101Z,3.00
2023-08-24T00:22:26.270Z,2.78
2023-08-24T00:32:29.058Z,2.80
2023-08-24T00:42:33.764Z,3.10
2023-08-24T00:52:39.219Z,2.97
2023-08-24T01:02:43.441Z,2.70
2023-08-24T01:13:03.524Z,3.20
2023-08-24T01:23:21.268Z,3.10
2023-08-24T01:33:26.481Z,3.13
2023-08-24T01:43:43.914Z,3.33
2023-08-24T01:53:50.495Z,3.20
2023-08-24T02:03:53.353Z,3.28
2023-08-24T02:13:57.536Z,2.88
2023-08-24T02:24:01.324Z,3.10
2023-08-24T02:34:05.412Z,3.42
2023-08-24T02:44:08.563Z,3.00
2023-08-24T02:54:13.002Z,2.78
2023-08-24T03:04:15.795Z,3.00
2023-08-24T03:14:20.011Z,3.17
2023-08-24T03:24:22.974Z,3.38
2023-08-24T03:34:28.290Z,3.35
2023-08-24T03:44:31.574Z,3.40
2023-08-24T03:54:35.884Z,3.30
2023-08-24T04:04:38.815Z,3.70
2023-08-24T04:14:43.185Z,3.38
2023-08-24T04:24:45.979Z,3.33
2023-08-24T04:34:50.569Z,3.50
2023-08-24T04:44:53.658Z,3.25
2023-08-24T04:54:57.798Z,3.60
2023-08-24T05:05:00.815Z,3.50
2023-08-24T05:15:05.864Z,3.40
2023-08-24T05:25:09.448Z,3.55
2023-08-24T05:35:14.148Z,3.83
2023-08-24T05:45:17.014Z,4.43
2023-08-24T05:55:21.328Z,4.00
2023-08-24T06:05:24.118Z,3.83
2023-08-24T06:15:29.089Z,3.60
2023-08-24T06:25:32.247Z,3.22
2023-08-24T06:35:36.732Z,3.20
2023-08-24T06:45:39.651Z,2.50
2023-08-24T06:55:43.818Z,2.13
2023-08-24T07:05:47.066Z,1.98
2023-08-24T07:15:52.062Z,2.00
2023-08-24T07:25:55.368Z,1.90
2023-08-24T07:35:59.553Z,2.05
2023-08-24T07:46:02.705Z,1.85
2023-08-24T07:56:08.356Z,1.98
2023-08-24T08:06:27.935Z,1.98
2023-08-24T08:16:38.816Z,1.95
2023-08-24T08:26:41.586Z,1.70
2023-08-24T08:36:46.981Z,1.88
2023-08-24T08:59:24.358Z,1.90
2023-08-24T09:09:28.198Z,2.53
2023-08-24T09:19:33.313Z,1.98
2023-08-24T09:29:38.939Z,2.00
2023-08-24T09:39:43.237Z,2.20
2023-08-24T09:49:46.557Z,2.00
2023-08-24T09:59:51.840Z,1.77
2023-08-24T10:10:00.943Z,2.00
2023-08-24T10:20:12.543Z,2.13
2023-08-24T10:30:16.668Z,2.10
2023-08-24T10:40:33.565Z,2.10
2023-08-24T10:50:36.447Z,2.10
2023-08-24T11:00:41.867Z,2.30
2023-08-24T11:10:48.467Z,2.40
2023-08-24T11:20:55.055Z,1.92
2023-08-24T11:30:58.998Z,2.28
2023-08-24T11:41:03.473Z,2.28
2023-08-24T11:51:09.969Z,2.00
2023-08-24T12:01:15.464Z,2.33
2023-08-24T12:11:19.293Z,2.10
2023-08-24T12:21:24.029Z,2.25
2023-08-24T12:31:28.926Z,2.42
2023-08-24T12:41:33.116Z,2.25
2023-08-24T12:51:35.886Z,2.28
2023-08-24T13:01:40.044Z,2.55
2023-08-24T13:11:42.859Z,2.40
2023-08-24T13:21:47.043Z,2.20
2023-08-24T13:31:49.809Z,2.50
2023-08-24T13:41:53.918Z,2.97
2023-08-24T13:51:56.678Z,2.75
2023-08-24T14:02:00.889Z,2.40
2023-08-24T14:12:03.870Z,2.80
2023-08-24T14:22:07.982Z,2.80
2023-08-24T14:32:10.800Z,2.80
2023-08-24T14:42:14.924Z,2.75
2023-08-24T14:52:17.751Z,2.17
2023-08-24T15:02:22.402Z,2.70
2023-08-24T15:12:25.310Z,2.63
2023-08-24T15:22:30.551Z,3.17
2023-08-24T15:32:34.124Z,3.08
2023-08-24T15:42:38.314Z,2.58
2023-08-24T15:52:41.221Z,2.70
2023-08-24T16:02:45.688Z,1.95
2023-08-24T16:12:48.631Z,2.25
2023-08-24T16:22:52.811Z,2.00
2023-08-24T16:32:55.697Z,1.92
2023-08-24T16:43:06.130Z,1.65
2023-08-24T16:53:08.960Z,2.13
2023-08-24T17:03:13.816Z,1.73
2023-08-24T17:13:19.085Z,1.80
2023-08-24T17:23:28.661Z,2.00
2023-08-24T17:33:31.500Z,1.85
2023-08-24T17:43:38.374Z,1.60
2023-08-24T17:53:41.534Z,1.83
2023-08-24T18:03:45.748Z,1.77
2023-08-24T18:13:51.150Z,1.73
2023-08-24T18:23:55.720Z,2.00
2023-08-24T18:34:02.410Z,1.90
2023-08-24T18:44:10.319Z,2.00
2023-08-24T18:54:13.858Z,1.92
2023-08-24T19:04:18.282Z,2.25
2023-08-24T19:14:21.141Z,2.65
2023-08-24T19:24:25.428Z,2.05
2023-08-24T19:34:28.295Z,2.20
2023-08-24T19:44:32.605Z,2.40
2023-08-24T19:54:35.470Z,2.33
2023-08-24T20:04:41.937Z,2.00
2023-08-24T20:14:44.755Z,2.25
2023-08-24T20:24:48.918Z,2.45
2023-08-24T20:35:02.693Z,2.30
2023-08-24T20:45:08.070Z,2.30
2023-08-24T20:55:14.764Z,2.25
2023-08-24T21:05:19.209Z,2.75
2023-08-24T21:15:22.198Z,2.50
2023-08-24T21:25:26.482Z,2.70
2023-08-24T21:35:29.296Z,2.78
2023-08-24T21:45:33.467Z,2.78
2023-08-24T21:55:38.445Z,2.75
2023-08-24T22:05:44.447Z,2.72
2023-08-24T22:15:47.272Z,2.95
2023-08-24T22:25:51.410Z,2.67
2023-08-24T22:35:54.331Z,2.75
2023-08-24T22:45:58.860Z,2.55
2023-08-24T22:56:01.715Z,3.00
2023-08-24T23:06:06.135Z,3.17
2023-08-24T23:16:09.300Z,3.30
2023-08-24T23:26:13.455Z,3.10
2023-08-24T23:36:16.605Z,3.17
2023-08-24T23:46:20.835Z,3.05
2023-08-24T23:56:23.838Z,3.58
